createdAt,value
2023-09-12T00:00:25.067Z,20.18
2023-09-12T00:00:57.100Z,20.16
2023-09-12T00:01:28.593Z,20.16
2023-09-12T00:02:00.139Z,20.15
2023-09-12T00:02:31.981Z,20.15
2023-09-12T00:03:03.776Z,20.16
2023-09-12T00:03:35.920Z,20.15
2023-09-12T00:04:07.551Z,20.15
2023-09-12T00:04:38.994Z,20.15
2023-09-12T00:05:10.471Z,20.14
2023-09-12T00:05:41.860Z,20.14
2023-09-12T00:06:13.316Z,20.14
2023-09-12T00:06:44.776Z,20.14
2023-09-12T00:07:16.192Z,20.13
2023-09-12T00:07:47.727Z,20.13
2023-09-12T00:08:19.136Z,20.13
2023-09-12T00:08:50.619Z,20.14
2023-09-12T00:09:22.126Z,20.12
2023-09-12T00:09:53.528Z,20.11
2023-09-12T00:10:25.887Z,20.11
2023-09-12T00:11:13.372Z,20.12
2023-09-12T00:11:44.922Z,20.10
2023-09-12T00:12:17.623Z,20.08
2023-09-12T00:12:49.165Z,20.06
2023-09-12T00:13:20.624Z,20.06
2023-09-12T00:13:52.868Z,20.06
2023-09-12T00:14:24.290Z,20.06
2023-09-12T00:14:55.718Z,20.05
2023-09-12T00:15:27.266Z,20.05
2023-09-12T00:15:59.072Z,20.05
2023-09-12T00:16:30.589Z,20.04
2023-09-12T00:17:02.181Z,20.02
2023-09-12T00:17:33.724Z,20.01
2023-09-12T00:18:05.435Z,19.98
2023-09-12T00:18:37.071Z,19.97
2023-09-12T00:19:08.477Z,19.94
2023-09-12T00:19:39.927Z,19.90
2023-09-12T00:20:12.294Z,19.88
2023-09-12T00:20:43.739Z,19.86
2023-09-12T00:21:15.234Z,19.85
2023-09-12T00:21:46.852Z,19.83
2023-09-12T00:22:18.272Z,19.81
2023-09-12T00:22:49.845Z,19.81
2023-09-12T00:23:23.709Z,19.79
2023-09-12T00:23:55.078Z,19.78
2023-09-12T00:24:26.616Z,19.75
2023-09-12T00:24:58.049Z,19.74
2023-09-12T00:25:29.501Z,19.72
2023-09-12T00:26:01.008Z,19.73
2023-09-12T00:26:32.660Z,19.72
2023-09-12T00:27:05.895Z,19.72
2023-09-12T00:27:37.428Z,19.72
2023-09-12T00:28:08.887Z,19.72
2023-09-12T00:28:41.810Z,19.73
2023-09-12T00:29:13.634Z,19.73
2023-09-12T00:29:45.171Z,19.73
2023-09-12T00:30:16.820Z,19.72
2023-09-12T00:30:48.292Z,19.72
2023-09-12T00:31:19.724Z,19.72
2023-09-12T00:31:51.327Z,19.72
2023-09-12T00:32:22.804Z,19.72
2023-09-12T00:32:54.307Z,19.73
2023-09-12T00:33:25.810Z,19.73
2023-09-12T00:33:57.305Z,19.74
2023-09-12T00:34:28.789Z,19.73
2023-09-12T00:35:00.262Z,19.73
2023-09-12T00:35:31.691Z,19.73
2023-09-12T00:36:03.168Z,19.73
2023-09-12T00:36:34.673Z,19.73
2023-09-12T00:37:06.232Z,19.73
2023-09-12T00:37:38.186Z,19.74
2023-09-12T00:38:10.202Z,19.73
2023-09-12T00:38:41.840Z,19.73
2023-09-12T00:39:13.495Z,19.71
2023-09-12T00:39:44.970Z,19.69
2023-09-12T00:40:16.435Z,19.67
2023-09-12T00:40:48.577Z,19.65
2023-09-12T00:41:19.984Z,19.65
2023-09-12T00:41:51.426Z,19.65
2023-09-12T00:42:25.843Z,19.66
2023-09-12T00:42:57.436Z,19.66
2023-09-12T00:43:28.850Z,19.65
2023-09-12T00:44:00.453Z,19.63
2023-09-12T00:44:31.871Z,19.62
2023-09-12T00:45:03.453Z,19.61
2023-09-12T00:45:35.011Z,19.59
2023-09-12T00:46:06.506Z,19.59
2023-09-12T00:46:38.710Z,19.58
2023-09-12T00:47:12.050Z,19.58
2023-09-12T00:47:43.955Z,19.58
2023-09-12T00:48:17.943Z,19.57
2023-09-12T00:48:50.490Z,19.55
2023-09-12T00:49:23.689Z,19.54
2023-09-12T00:49:57.627Z,19.52
2023-09-12T00:50:31.613Z,19.52
2023-09-12T00:51:03.825Z,19.52
2023-09-12T00:51:37.062Z,19.51
2023-09-12T00:52:09.558Z,19.51
2023-09-12T00:52:41.817Z,19.51
2023-09-12T00:53:13.429Z,19.51
2023-09-12T00:53:44.995Z,19.52
2023-09-12T00:54:16.646Z,19.52
2023-09-12T00:54:48.120Z,19.53
2023-09-12T00:55:21.872Z,19.52
2023-09-12T00:55:58.454Z,19.52
2023-09-12T00:56:30.083Z,19.49
2023-09-12T00:57:01.812Z,19.50
2023-09-12T00:57:35.624Z,19.50
2023-09-12T00:58:08.578Z,19.51
2023-09-12T00:58:40.796Z,19.50
2023-09-12T00:59:12.784Z,19.49
2023-09-12T00:59:44.318Z,19.48
2023-09-12T01:00:16.608Z,19.47
2023-09-12T01:00:48.990Z,19.47
2023-09-12T01:01:21.904Z,19.45
2023-09-12T01:01:53.429Z,19.44
2023-09-12T01:02:26.027Z,19.45
2023-09-12T01:02:59.339Z,19.44
2023-09-12T01:03:31.897Z,19.42
2023-09-12T01:04:04.298Z,19.42
2023-09-12T01:04:38.040Z,19.41
2023-09-12T01:05:11.177Z,19.39
2023-09-12T01:05:44.130Z,19.37
2023-09-12T01:06:20.641Z,19.36
2023-09-12T01:06:53.084Z,19.33
2023-09-12T01:07:25.065Z,19.33
2023-09-12T01:07:57.549Z,19.29
2023-09-12T01:08:29.307Z,19.29
2023-09-12T01:09:01.263Z,19.27
2023-09-12T01:09:34.468Z,19.26
2023-09-12T01:10:07.353Z,19.25
2023-09-12T01:10:38.861Z,19.25
2023-09-12T01:11:10.628Z,19.23
2023-09-12T01:11:42.495Z,19.23
2023-09-12T01:12:15.698Z,19.21
2023-09-12T01:12:47.384Z,19.19
2023-09-12T01:13:18.830Z,19.19
2023-09-12T01:13:50.247Z,19.19
2023-09-12T01:14:21.699Z,19.19
2023-09-12T01:14:53.742Z,19.19
2023-09-12T01:15:25.281Z,19.18
2023-09-12T01:15:57.177Z,19.18
2023-09-12T01:16:28.769Z,19.16
2023-09-12T01:17:02.433Z,19.16
2023-09-12T01:17:34.078Z,19.16
2023-09-12T01:18:05.812Z,19.16
2023-09-12T01:18:38.034Z,19.14
2023-09-12T01:19:15.874Z,19.14
2023-09-12T01:19:49.386Z,19.14
2023-09-12T01:20:28.671Z,19.13
2023-09-12T01:21:37.878Z,19.15
2023-09-12T01:22:37.339Z,19.14
2023-09-12T01:23:38.014Z,19.13
2023-09-12T01:24:33.415Z,19.12
2023-09-12T01:25:16.691Z,19.12
2023-09-12T01:26:09.719Z,19.11
2023-09-12T01:27:03.560Z,19.09
2023-09-12T01:27:47.755Z,19.07
2023-09-12T01:28:19.565Z,19.03
2023-09-12T01:28:52.251Z,19.00
2023-09-12T01:29:25.385Z,18.98
2023-09-12T01:30:04.749Z,18.98
2023-09-12T01:30:37.269Z,18.96
2023-09-12T01:31:08.834Z,18.97
2023-09-12T01:31:41.315Z,18.96
2023-09-12T01:32:15.153Z,18.96
2023-09-12T01:32:48.068Z,18.94
2023-09-12T01:33:20.622Z,18.94
2023-09-12T01:33:57.459Z,18.94
2023-09-12T01:34:28.947Z,18.94
2023-09-12T01:35:01.102Z,18.93
2023-09-12T01:35:32.636Z,18.93
2023-09-12T01:36:04.409Z,18.92
2023-09-12T01:36:35.925Z,18.93
2023-09-12T01:37:07.366Z,18.92
2023-09-12T01:37:38.786Z,18.92
2023-09-12T01:38:10.585Z,18.92
2023-09-12T01:38:42.313Z,18.91
2023-09-12T01:39:14.441Z,18.91
2023-09-12T01:39:46.178Z,18.90
2023-09-12T01:40:18.164Z,18.90
2023-09-12T01:40:55.965Z,18.87
2023-09-12T01:41:30.135Z,18.88
2023-09-12T01:42:02.709Z,18.88
2023-09-12T01:42:39.627Z,18.89
2023-09-12T01:43:12.767Z,18.86
2023-09-12T01:43:45.089Z,18.86
2023-09-12T01:44:17.507Z,18.85
2023-09-12T01:44:52.346Z,18.86
2023-09-12T01:45:24.528Z,18.86
2023-09-12T01:45:59.623Z,18.87
2023-09-12T01:46:34.134Z,18.87
2023-09-12T01:47:07.637Z,18.86
2023-09-12T01:47:40.927Z,18.85
2023-09-12T01:48:12.992Z,18.84
2023-09-12T01:48:45.878Z,18.83
2023-09-12T01:49:20.389Z,18.82
2023-09-12T01:49:56.585Z,18.80
2023-09-12T01:50:29.366Z,18.80
2023-09-12T01:51:02.545Z,18.80
2023-09-12T01:51:34.667Z,18.80
2023-09-12T01:52:06.794Z,18.78
2023-09-12T01:52:38.745Z,18.78
2023-09-12T01:53:11.110Z,18.77
2023-09-12T01:53:46.074Z,18.77
2023-09-12T01:54:18.416Z,18.77
2023-09-12T01:54:51.748Z,18.78
2023-09-12T01:55:23.770Z,18.78
2023-09-12T01:55:56.700Z,18.77
2023-09-12T01:56:29.134Z,18.77
2023-09-12T01:57:01.675Z,18.78
2023-09-12T01:57:33.915Z,18.78
2023-09-12T01:58:05.778Z,18.78
2023-09-12T01:58:37.604Z,18.78
2023-09-12T01:59:09.735Z,18.79
2023-09-12T01:59:41.211Z,18.79
2023-09-12T02:00:14.134Z,18.78
2023-09-12T02:00:45.607Z,18.78
2023-09-12T02:01:17.043Z,18.77
2023-09-12T02:01:48.542Z,18.76
2023-09-12T02:02:20.131Z,18.75
2023-09-12T02:02:51.697Z,18.75
2023-09-12T02:03:23.255Z,18.72
2023-09-12T02:03:54.796Z,18.72
2023-09-12T02:04:26.328Z,18.71
2023-09-12T02:05:19.978Z,18.72
2023-09-12T02:05:51.638Z,18.69
2023-09-12T02:06:23.431Z,18.67
2023-09-12T02:06:54.912Z,18.65
2023-09-12T02:07:27.941Z,18.65
2023-09-12T02:08:02.472Z,18.61
2023-09-12T02:08:33.939Z,18.61
2023-09-12T02:09:05.450Z,18.60
2023-09-12T02:09:37.021Z,18.59
2023-09-12T02:10:10.717Z,18.58
2023-09-12T02:10:42.225Z,18.57
2023-09-12T02:11:13.649Z,18.57
2023-09-12T02:11:45.655Z,18.55
2023-09-12T02:12:17.086Z,18.54
2023-09-12T02:12:48.743Z,18.53
2023-09-12T02:13:20.289Z,18.51
2023-09-12T02:13:51.706Z,18.52
2023-09-12T02:14:23.147Z,18.50
2023-09-12T02:14:54.774Z,18.52
2023-09-12T02:15:26.374Z,18.51
2023-09-12T02:16:04.644Z,18.52
2023-09-12T02:16:40.973Z,18.52
2023-09-12T02:17:13.987Z,18.52
2023-09-12T02:17:45.558Z,18.51
2023-09-12T02:18:17.097Z,18.51
2023-09-12T02:18:49.455Z,18.50
2023-09-12T02:19:20.976Z,18.51
2023-09-12T02:19:52.340Z,18.51
2023-09-12T02:20:23.926Z,18.52
2023-09-12T02:20:55.387Z,18.52
2023-09-12T02:21:26.819Z,18.52
2023-09-12T02:21:58.434Z,18.53
2023-09-12T02:22:29.906Z,18.52
2023-09-12T02:23:01.281Z,18.53
2023-09-12T02:23:32.745Z,18.53
2023-09-12T02:24:04.432Z,18.52
2023-09-12T02:24:36.227Z,18.54
2023-09-12T02:25:09.560Z,18.54
2023-09-12T02:25:41.143Z,18.55
2023-09-12T02:26:12.629Z,18.55
2023-09-12T02:26:44.054Z,18.55
2023-09-12T02:27:15.507Z,18.56
2023-09-12T02:27:46.991Z,18.56
2023-09-12T02:28:18.429Z,18.56
2023-09-12T02:28:49.879Z,18.57
2023-09-12T02:29:21.605Z,18.57
2023-09-12T02:29:53.105Z,18.57
2023-09-12T02:30:24.501Z,18.57
2023-09-12T02:30:56.006Z,18.58
2023-09-12T02:31:27.431Z,18.57
2023-09-12T02:31:59.087Z,18.56
2023-09-12T02:32:31.039Z,18.55
2023-09-12T02:33:02.626Z,18.54
2023-09-12T02:33:34.188Z,18.53
2023-09-12T02:34:05.928Z,18.52
2023-09-12T02:34:37.315Z,18.50
2023-09-12T02:35:08.859Z,18.47
2023-09-12T02:35:40.408Z,18.45
2023-09-12T02:36:12.076Z,18.43
2023-09-12T02:36:43.700Z,18.43
2023-09-12T02:37:16.737Z,18.42
2023-09-12T02:37:48.192Z,18.41
2023-09-12T02:38:19.887Z,18.42
2023-09-12T02:38:51.367Z,18.41
2023-09-12T02:39:22.844Z,18.42
2023-09-12T02:39:54.352Z,18.41
2023-09-12T02:40:26.313Z,18.41
2023-09-12T02:40:57.865Z,18.42
2023-09-12T02:41:29.362Z,18.42
2023-09-12T02:42:00.882Z,18.43
2023-09-12T02:42:32.353Z,18.43
2023-09-12T02:43:04.010Z,18.44
2023-09-12T02:43:35.514Z,18.44
2023-09-12T02:44:07.052Z,18.44
2023-09-12T02:44:38.452Z,18.43
2023-09-12T02:45:10.328Z,18.42
2023-09-12T02:45:41.945Z,18.43
2023-09-12T02:46:13.478Z,18.43
2023-09-12T02:46:44.987Z,18.43
2023-09-12T02:47:17.265Z,18.43
2023-09-12T02:47:48.809Z,18.42
2023-09-12T02:48:20.360Z,18.41
2023-09-12T02:48:51.955Z,18.40
2023-09-12T02:49:23.441Z,18.39
2023-09-12T02:49:54.887Z,18.38
2023-09-12T02:50:26.313Z,18.37
2023-09-12T02:50:57.893Z,18.36
2023-09-12T02:51:29.560Z,18.36
2023-09-12T02:52:01.024Z,18.36
2023-09-12T02:52:32.532Z,18.35
2023-09-12T02:53:04.330Z,18.35
2023-09-12T02:53:35.747Z,18.34
2023-09-12T02:54:07.357Z,18.33
2023-09-12T02:54:38.891Z,18.33
2023-09-12T02:55:10.390Z,18.32
2023-09-12T02:55:43.534Z,18.32
2023-09-12T02:56:14.938Z,18.32
2023-09-12T02:56:46.361Z,18.31
2023-09-12T02:57:17.844Z,18.30
2023-09-12T02:57:49.367Z,18.29
2023-09-12T02:58:20.844Z,18.30
2023-09-12T02:58:52.325Z,18.29
2023-09-12T02:59:23.834Z,18.29
2023-09-12T02:59:55.321Z,18.28
2023-09-12T03:00:26.723Z,18.27
2023-09-12T03:00:58.240Z,18.27
2023-09-12T03:01:29.800Z,18.26
2023-09-12T03:02:01.230Z,18.26
2023-09-12T03:02:33.196Z,18.24
2023-09-12T03:03:04.972Z,18.23
2023-09-12T03:03:36.711Z,18.20
2023-09-12T03:04:08.386Z,18.19
2023-09-12T03:04:39.928Z,18.18
2023-09-12T03:05:11.466Z,18.16
2023-09-12T03:05:42.870Z,18.14
2023-09-12T03:06:17.586Z,18.13
2023-09-12T03:06:49.048Z,18.10
2023-09-12T03:07:20.511Z,18.09
2023-09-12T03:07:51.924Z,18.08
2023-09-12T03:08:23.439Z,18.07
2023-09-12T03:08:54.944Z,18.06
2023-09-12T03:09:26.468Z,18.06
2023-09-12T03:09:58.049Z,18.05
2023-09-12T03:10:29.469Z,18.06
2023-09-12T03:11:02.644Z,18.06
2023-09-12T03:11:34.155Z,18.07
2023-09-12T03:12:06.090Z,18.07
2023-09-12T03:12:38.427Z,18.09
2023-09-12T03:13:12.693Z,18.10
2023-09-12T03:13:44.083Z,18.11
2023-09-12T03:14:15.633Z,18.10
2023-09-12T03:14:47.083Z,18.09
2023-09-12T03:15:18.588Z,18.08
2023-09-12T03:15:50.045Z,18.08
2023-09-12T03:16:21.849Z,18.08
2023-09-12T03:16:53.399Z,18.07
2023-09-12T03:17:24.993Z,18.08
2023-09-12T03:17:56.887Z,18.06
2023-09-12T03:18:28.374Z,18.04
2023-09-12T03:19:01.632Z,18.02
2023-09-12T03:19:33.132Z,18.00
2023-09-12T03:20:08.793Z,18.00
2023-09-12T03:20:40.694Z,17.99
2023-09-12T03:21:12.269Z,17.97
2023-09-12T03:21:43.919Z,17.98
2023-09-12T03:22:15.455Z,17.98
2023-09-12T03:22:47.137Z,17.99
2023-09-12T03:23:20.425Z,17.98
2023-09-12T03:23:51.927Z,17.99
2023-09-12T03:24:25.839Z,17.99
2023-09-12T03:24:57.284Z,17.99
2023-09-12T03:25:28.722Z,17.98
2023-09-12T03:26:04.797Z,17.98
2023-09-12T03:26:36.890Z,17.97
2023-09-12T03:27:08.999Z,17.96
2023-09-12T03:27:40.618Z,17.94
2023-09-12T03:28:12.124Z,17.92
2023-09-12T03:28:43.805Z,17.91
2023-09-12T03:29:15.476Z,17.88
2023-09-12T03:29:50.122Z,17.88
2023-09-12T03:30:22.451Z,17.87
2023-09-12T03:31:03.843Z,17.86
2023-09-12T03:31:36.414Z,17.86
2023-09-12T03:32:07.925Z,17.85
2023-09-12T03:32:39.399Z,17.84
2023-09-12T03:33:11.100Z,17.84
2023-09-12T03:33:43.688Z,17.83
2023-09-12T03:34:15.233Z,17.82
2023-09-12T03:34:46.609Z,17.82
2023-09-12T03:35:18.094Z,17.80
2023-09-12T03:35:49.680Z,17.79
2023-09-12T03:36:21.229Z,17.77
2023-09-12T03:36:52.731Z,17.77
2023-09-12T03:37:28.199Z,17.78
2023-09-12T03:37:59.825Z,17.77
2023-09-12T03:38:31.330Z,17.75
2023-09-12T03:39:03.963Z,17.75
2023-09-12T03:39:35.545Z,17.74
2023-09-12T03:40:08.544Z,17.73
2023-09-12T03:40:40.021Z,17.73
2023-09-12T03:41:11.606Z,17.72
2023-09-12T03:41:43.513Z,17.71
2023-09-12T03:42:14.981Z,17.71
2023-09-12T03:42:46.483Z,17.73
2023-09-12T03:43:17.979Z,17.73
2023-09-12T03:43:49.425Z,17.75
2023-09-12T03:44:20.991Z,17.75
2023-09-12T03:44:52.401Z,17.76
2023-09-12T03:45:24.623Z,17.78
2023-09-12T03:45:56.190Z,17.79
2023-09-12T03:46:27.812Z,17.81
2023-09-12T03:46:59.449Z,17.81
2023-09-12T03:47:30.980Z,17.81
2023-09-12T03:48:02.533Z,17.82
2023-09-12T03:48:37.711Z,17.84
2023-09-12T03:49:09.130Z,17.85
2023-09-12T03:49:40.519Z,17.84
2023-09-12T03:50:11.929Z,17.84
2023-09-12T03:50:43.513Z,17.83
2023-09-12T03:51:16.067Z,17.84
2023-09-12T03:51:47.549Z,17.83
2023-09-12T03:52:19.050Z,17.83
2023-09-12T03:52:50.567Z,17.82
2023-09-12T03:53:21.953Z,17.80
2023-09-12T03:53:53.497Z,17.79
2023-09-12T03:54:24.932Z,17.78
2023-09-12T03:54:56.500Z,17.76
2023-09-12T03:55:28.628Z,17.76
2023-09-12T03:56:00.770Z,17.76
2023-09-12T03:56:32.395Z,17.75
2023-09-12T03:57:04.134Z,17.74
2023-09-12T03:57:35.813Z,17.74
2023-09-12T03:58:07.375Z,17.72
2023-09-12T03:58:39.858Z,17.72
2023-09-12T03:59:11.356Z,17.72
2023-09-12T03:59:42.882Z,17.71
2023-09-12T04:00:15.049Z,17.72
2023-09-12T04:00:46.535Z,17.73
2023-09-12T04:01:18.084Z,17.73
2023-09-12T04:01:49.537Z,17.73
2023-09-12T04:02:21.234Z,17.75
2023-09-12T04:02:52.794Z,17.76
2023-09-12T04:03:24.452Z,17.77
2023-09-12T04:03:55.977Z,17.78
2023-09-12T04:04:27.637Z,17.78
2023-09-12T04:05:00.509Z,17.80
2023-09-12T04:05:32.227Z,17.79
2023-09-12T04:06:03.816Z,17.79
2023-09-12T04:06:35.594Z,17.79
2023-09-12T04:07:07.214Z,17.79
2023-09-12T04:07:38.766Z,17.81
2023-09-12T04:08:10.181Z,17.80
2023-09-12T04:08:41.920Z,17.80
2023-09-12T04:09:13.595Z,17.79
2023-09-12T04:09:45.417Z,17.78
2023-09-12T04:10:17.027Z,17.76
2023-09-12T04:10:48.500Z,17.76
2023-09-12T04:11:25.295Z,17.74
2023-09-12T04:12:03.420Z,17.73
2023-09-12T04:12:34.897Z,17.72
2023-09-12T04:13:06.382Z,17.72
2023-09-12T04:13:37.891Z,17.73
2023-09-12T04:14:09.324Z,17.73
2023-09-12T04:14:40.767Z,17.74
2023-09-12T04:15:12.387Z,17.76
2023-09-12T04:15:43.909Z,17.77
2023-09-12T04:16:15.660Z,17.78
2023-09-12T04:16:47.527Z,17.80
2023-09-12T04:17:19.303Z,17.81
2023-09-12T04:17:50.840Z,17.82
2023-09-12T04:18:22.487Z,17.82
2023-09-12T04:18:54.033Z,17.83
2023-09-12T04:19:26.205Z,17.84
2023-09-12T04:19:57.597Z,17.84
2023-09-12T04:20:29.239Z,17.85
2023-09-12T04:21:00.726Z,17.86
2023-09-12T04:21:32.226Z,17.85
2023-09-12T04:22:05.548Z,17.87
2023-09-12T04:22:37.063Z,17.86
2023-09-12T04:23:08.630Z,17.87
2023-09-12T04:23:40.051Z,17.87
2023-09-12T04:24:12.029Z,17.86
2023-09-12T04:24:43.689Z,17.86
2023-09-12T04:25:15.157Z,17.87
2023-09-12T04:25:47.088Z,17.88
2023-09-12T04:26:18.592Z,17.87
2023-09-12T04:26:50.068Z,17.86
2023-09-12T04:27:21.567Z,17.88
2023-09-12T04:27:53.078Z,17.86
2023-09-12T04:28:27.377Z,17.86
2023-09-12T04:28:58.787Z,17.87
2023-09-12T04:29:30.247Z,17.86
2023-09-12T04:30:01.819Z,17.87
2023-09-12T04:30:33.382Z,17.86
2023-09-12T04:31:05.275Z,17.86
2023-09-12T04:31:36.758Z,17.86
2023-09-12T04:32:08.154Z,17.86
2023-09-12T04:32:39.603Z,17.85
2023-09-12T04:33:11.004Z,17.85
2023-09-12T04:33:42.521Z,17.84
2023-09-12T04:34:14.072Z,17.84
2023-09-12T04:34:45.535Z,17.85
2023-09-12T04:35:17.047Z,17.86
2023-09-12T04:35:48.547Z,17.86
2023-09-12T04:36:20.984Z,17.87
2023-09-12T04:36:53.562Z,17.87
2023-09-12T04:37:25.161Z,17.86
2023-09-12T04:37:56.602Z,17.87
2023-09-12T04:38:28.165Z,17.87
2023-09-12T04:39:00.275Z,17.87
2023-09-12T04:39:32.271Z,17.88
2023-09-12T04:40:06.352Z,17.86
2023-09-12T04:40:38.866Z,17.89
2023-09-12T04:41:15.307Z,17.89
2023-09-12T04:41:47.258Z,17.88
2023-09-12T04:42:18.967Z,17.88
2023-09-12T04:42:50.445Z,17.88
2023-09-12T04:43:21.946Z,17.88
2023-09-12T04:43:53.298Z,17.85
2023-09-12T04:44:24.750Z,17.85
2023-09-12T04:44:56.226Z,17.84
2023-09-12T04:45:27.760Z,17.84
2023-09-12T04:45:59.402Z,17.83
2023-09-12T04:46:30.935Z,17.82
2023-09-12T04:47:02.683Z,17.81
2023-09-12T04:47:34.202Z,17.80
2023-09-12T04:48:05.986Z,17.80
2023-09-12T04:48:37.574Z,17.79
2023-09-12T04:49:09.087Z,17.78
2023-09-12T04:49:41.180Z,17.79
2023-09-12T04:50:15.244Z,17.78
2023-09-12T04:50:46.898Z,17.78
2023-09-12T04:51:18.344Z,17.78
2023-09-12T04:51:49.804Z,17.77
2023-09-12T04:52:21.258Z,17.78
2023-09-12T04:52:52.732Z,17.78
2023-09-12T04:53:24.187Z,17.77
2023-09-12T04:53:55.966Z,17.78
2023-09-12T04:54:27.577Z,17.78
2023-09-12T04:54:59.015Z,17.78
2023-09-12T04:55:30.485Z,17.79
2023-09-12T04:56:07.278Z,17.79
2023-09-12T04:56:38.747Z,17.80
2023-09-12T04:57:10.173Z,17.79
2023-09-12T04:57:42.790Z,17.79
2023-09-12T04:58:14.530Z,17.78
2023-09-12T04:58:45.985Z,17.78
2023-09-12T04:59:17.482Z,17.78
2023-09-12T04:59:48.921Z,17.78
2023-09-12T05:00:20.380Z,17.78
2023-09-12T05:00:51.794Z,17.77
2023-09-12T05:01:23.328Z,17.77
2023-09-12T05:01:54.842Z,17.77
2023-09-12T05:02:26.733Z,17.77
2023-09-12T05:02:58.420Z,17.76
2023-09-12T05:03:30.029Z,17.74
2023-09-12T05:04:01.551Z,17.73
2023-09-12T05:04:33.161Z,17.73
2023-09-12T05:05:05.097Z,17.72
2023-09-12T05:05:39.687Z,17.73
2023-09-12T05:06:12.572Z,17.72
2023-09-12T05:06:44.306Z,17.71
2023-09-12T05:07:15.699Z,17.70
2023-09-12T05:07:47.259Z,17.71
2023-09-12T05:08:21.689Z,17.71
2023-09-12T05:08:53.294Z,17.71
2023-09-12T05:09:24.761Z,17.70
2023-09-12T05:09:56.279Z,17.71
2023-09-12T05:10:27.705Z,17.71
2023-09-12T05:10:59.110Z,17.72
2023-09-12T05:11:30.524Z,17.71
2023-09-12T05:12:01.928Z,17.72
2023-09-12T05:12:33.384Z,17.71
2023-09-12T05:13:04.825Z,17.71
2023-09-12T05:13:36.302Z,17.72
2023-09-12T05:14:07.825Z,17.72
2023-09-12T05:14:39.281Z,17.72
2023-09-12T05:15:10.896Z,17.71
2023-09-12T05:15:42.934Z,17.71
2023-09-12T05:16:14.483Z,17.71
2023-09-12T05:16:46.022Z,17.71
2023-09-12T05:17:17.445Z,17.71
2023-09-12T05:17:48.909Z,17.72
2023-09-12T05:18:20.474Z,17.72
2023-09-12T05:18:52.754Z,17.71
2023-09-12T05:19:25.186Z,17.72
2023-09-12T05:19:56.621Z,17.72
2023-09-12T05:20:28.099Z,17.72
2023-09-12T05:20:59.566Z,17.71
2023-09-12T05:21:31.063Z,17.72
2023-09-12T05:22:02.602Z,17.71
2023-09-12T05:22:34.103Z,17.68
2023-09-12T05:23:05.729Z,17.68
2023-09-12T05:23:37.178Z,17.68
2023-09-12T05:24:08.833Z,17.67
2023-09-12T05:24:40.413Z,17.67
2023-09-12T05:25:11.904Z,17.67
2023-09-12T05:25:43.370Z,17.66
2023-09-12T05:26:14.776Z,17.69
2023-09-12T05:26:46.321Z,17.67
2023-09-12T05:27:17.779Z,17.68
2023-09-12T05:27:49.239Z,17.68
2023-09-12T05:28:20.740Z,17.67
2023-09-12T05:28:52.287Z,17.67
2023-09-12T05:29:23.779Z,17.67
2023-09-12T05:29:55.191Z,17.66
2023-09-12T05:30:26.731Z,17.66
2023-09-12T05:30:58.278Z,17.66
2023-09-12T05:31:29.916Z,17.64
2023-09-12T05:32:02.003Z,17.65
2023-09-12T05:32:33.739Z,17.66
2023-09-12T05:33:05.378Z,17.64
2023-09-12T05:33:36.896Z,17.63
2023-09-12T05:34:08.378Z,17.63
2023-09-12T05:34:39.857Z,17.63
2023-09-12T05:35:21.494Z,17.61
2023-09-12T05:35:54.029Z,17.61
2023-09-12T05:36:25.798Z,17.61
2023-09-12T05:36:57.995Z,17.61
2023-09-12T05:37:29.896Z,17.62
2023-09-12T05:38:01.344Z,17.60
2023-09-12T05:38:32.766Z,17.61
2023-09-12T05:39:04.710Z,17.61
2023-09-12T05:39:36.326Z,17.61
2023-09-12T05:40:08.268Z,17.60
2023-09-12T05:40:39.828Z,17.61
2023-09-12T05:41:11.239Z,17.61
2023-09-12T05:41:42.641Z,17.60
2023-09-12T05:42:15.947Z,17.59
2023-09-12T05:42:47.529Z,17.59
2023-09-12T05:43:19.045Z,17.57
2023-09-12T05:43:50.474Z,17.55
2023-09-12T05:44:21.918Z,17.54
2023-09-12T05:44:57.395Z,17.53
2023-09-12T05:45:31.762Z,17.52
2023-09-12T05:46:03.417Z,17.51
2023-09-12T05:46:34.960Z,17.51
2023-09-12T05:47:07.882Z,17.52
2023-09-12T05:47:39.401Z,17.52
2023-09-12T05:48:11.088Z,17.51
2023-09-12T05:48:42.953Z,17.53
2023-09-12T05:49:15.598Z,17.54
2023-09-12T05:49:47.141Z,17.53
2023-09-12T05:50:18.561Z,17.55
2023-09-12T05:50:50.043Z,17.55
2023-09-12T05:51:21.558Z,17.55
2023-09-12T05:51:53.116Z,17.56
2023-09-12T05:52:24.577Z,17.57
2023-09-12T05:52:55.964Z,17.57
2023-09-12T05:53:27.329Z,17.58
2023-09-12T05:53:58.880Z,17.56
2023-09-12T05:54:30.375Z,17.55
2023-09-12T05:55:01.942Z,17.54
2023-09-12T05:55:33.403Z,17.54
2023-09-12T05:56:04.817Z,17.55
2023-09-12T05:56:36.311Z,17.55
2023-09-12T05:57:08.603Z,17.56
2023-09-12T05:57:40.016Z,17.56
2023-09-12T05:58:11.536Z,17.56
2023-09-12T05:58:44.158Z,17.56
2023-09-12T05:59:15.811Z,17.57
2023-09-12T05:59:47.196Z,17.58
2023-09-12T06:00:19.205Z,17.59
2023-09-12T06:00:51.094Z,17.59
2023-09-12T06:01:22.619Z,17.60
2023-09-12T06:01:54.720Z,17.62
2023-09-12T06:02:26.531Z,17.62
2023-09-12T06:02:58.106Z,17.64
2023-09-12T06:03:30.128Z,17.64
2023-09-12T06:04:01.856Z,17.65
2023-09-12T06:04:33.805Z,17.65
2023-09-12T06:05:05.589Z,17.66
2023-09-12T06:05:37.097Z,17.66
2023-09-12T06:06:08.627Z,17.68
2023-09-12T06:06:40.232Z,17.67
2023-09-12T06:07:15.082Z,17.67
2023-09-12T06:07:47.925Z,17.68
2023-09-12T06:08:19.493Z,17.70
2023-09-12T06:08:50.869Z,17.70
2023-09-12T06:09:22.301Z,17.70
2023-09-12T06:09:54.663Z,17.70
2023-09-12T06:10:26.102Z,17.69
2023-09-12T06:10:57.656Z,17.70
2023-09-12T06:11:29.080Z,17.69
2023-09-12T06:12:00.644Z,17.69
2023-09-12T06:12:34.068Z,17.68
2023-09-12T06:13:05.693Z,17.69
2023-09-12T06:13:38.569Z,17.70
2023-09-12T06:14:09.979Z,17.72
2023-09-12T06:14:41.526Z,17.72
2023-09-12T06:15:13.014Z,17.74
2023-09-12T06:15:44.523Z,17.75
2023-09-12T06:16:16.062Z,17.76
2023-09-12T06:16:47.773Z,17.74
2023-09-12T06:17:19.210Z,17.76
2023-09-12T06:17:50.794Z,17.77
2023-09-12T06:18:22.339Z,17.77
2023-09-12T06:18:54.845Z,17.78
2023-09-12T06:19:26.330Z,17.78
2023-09-12T06:19:57.868Z,17.79
2023-09-12T06:20:29.329Z,17.79
2023-09-12T06:21:03.065Z,17.79
2023-09-12T06:21:34.470Z,17.81
2023-09-12T06:22:06.029Z,17.81
2023-09-12T06:22:37.529Z,17.81
2023-09-12T06:23:09.014Z,17.82
2023-09-12T06:23:40.603Z,17.82
2023-09-12T06:24:16.198Z,17.83
2023-09-12T06:24:47.704Z,17.84
2023-09-12T06:25:19.481Z,17.83
2023-09-12T06:25:51.008Z,17.83
2023-09-12T06:26:22.508Z,17.83
2023-09-12T06:26:54.133Z,17.83
2023-09-12T06:27:25.716Z,17.83
2023-09-12T06:27:57.185Z,17.84
2023-09-12T06:28:31.058Z,17.83
2023-09-12T06:29:03.650Z,17.84
2023-09-12T06:29:35.214Z,17.85
2023-09-12T06:30:07.411Z,17.84
2023-09-12T06:30:39.030Z,17.85
2023-09-12T06:31:10.817Z,17.85
2023-09-12T06:31:42.651Z,17.87
2023-09-12T06:32:14.327Z,17.87
2023-09-12T06:32:45.836Z,17.88
2023-09-12T06:33:17.255Z,17.89
2023-09-12T06:33:48.759Z,17.90
2023-09-12T06:34:20.263Z,17.90
2023-09-12T06:34:51.725Z,17.91
2023-09-12T06:35:23.217Z,17.91
2023-09-12T06:35:55.202Z,17.92
2023-09-12T06:36:27.077Z,17.91
2023-09-12T06:36:58.525Z,17.92
2023-09-12T06:37:29.945Z,17.93
2023-09-12T06:38:01.340Z,17.93
2023-09-12T06:38:32.730Z,17.94
2023-09-12T06:39:06.247Z,17.95
2023-09-12T06:39:38.230Z,17.96
2023-09-12T06:40:09.886Z,17.97
2023-09-12T06:40:41.445Z,17.99
2023-09-12T06:41:13.020Z,17.99
2023-09-12T06:41:44.714Z,17.99
2023-09-12T06:42:16.188Z,17.99
2023-09-12T06:42:47.691Z,17.99
2023-09-12T06:43:19.139Z,17.99
2023-09-12T06:43:50.669Z,17.98
2023-09-12T06:44:22.106Z,17.99
2023-09-12T06:44:53.539Z,18.00
2023-09-12T06:45:25.027Z,18.00
2023-09-12T06:45:56.518Z,18.02
2023-09-12T06:46:28.059Z,18.02
2023-09-12T06:46:59.540Z,18.05
2023-09-12T06:47:30.982Z,18.05
2023-09-12T06:48:02.443Z,18.06
2023-09-12T06:48:33.972Z,18.08
2023-09-12T06:49:05.528Z,18.08
2023-09-12T06:49:38.616Z,18.10
2023-09-12T06:50:14.104Z,18.10
2023-09-12T06:50:51.695Z,18.11
2023-09-12T06:51:27.650Z,18.11
2023-09-12T06:52:02.176Z,18.12
2023-09-12T06:52:33.570Z,18.11
2023-09-12T06:53:08.020Z,18.13
2023-09-12T06:53:40.024Z,18.15
2023-09-12T06:54:11.683Z,18.16
2023-09-12T06:54:43.335Z,18.17
2023-09-12T06:55:14.913Z,18.18
2023-09-12T06:55:46.378Z,18.19
2023-09-12T06:56:17.850Z,18.21